createdAt,value
2024-02-08T00:02:02.642Z,91.82
2024-02-08T00:04:29.286Z,91.71
2024-02-08T00:06:55.968Z,91.29
2024-02-08T00:09:22.530Z,91.65
2024-02-08T00:11:48.998Z,91.86
2024-02-08T00:14:15.462Z,92.22
2024-02-08T00:16:41.910Z,91.94
2024-02-08T00:19:08.415Z,91.08
2024-02-08T00:21:36.595Z,92.12
2024-02-08T00:24:03.294Z,91.84
2024-02-08T00:26:29.883Z,91.78
2024-02-08T00:28:56.368Z,92.19
2024-02-08T00:31:22.915Z,92.17
2024-02-08T00:33:50.768Z,91.87
2024-02-08T00:36:17.316Z,91.30
2024-02-08T00:38:46.481Z,91.01
2024-02-08T00:41:13.013Z,91.54
2024-02-08T00:43:40.252Z,91.92
2024-02-08T00:46:07.549Z,91.59
2024-02-08T00:48:33.925Z,91.16
2024-02-08T00:51:00.492Z,90.84
2024-02-08T00:53:26.929Z,90.93
2024-02-08T00:55:53.453Z,91.36
2024-02-08T00:58:19.985Z,91.76
2024-02-08T01:00:48.735Z,91.22
2024-02-08T01:03:15.491Z,91.32
2024-02-08T01:05:43.353Z,91.49
2024-02-08T01:08:11.886Z,91.18
2024-02-08T01:10:38.490Z,91.28
2024-02-08T01:13:05.667Z,91.59
2024-02-08T01:15:32.084Z,91.72
2024-02-08T01:17:59.796Z,91.91
2024-02-08T01:20:29.395Z,92.03
2024-02-08T01:22:56.166Z,91.94
2024-02-08T01:25:22.741Z,92.22
2024-02-08T01:27:49.259Z,91.87
2024-02-08T01:30:15.740Z,92.28
2024-02-08T01:32:42.406Z,92.28
2024-02-08T01:35:12.241Z,92.16
2024-02-08T01:37:39.969Z,92.15
2024-02-08T01:40:17.663Z,92.30
2024-02-08T01:42:44.912Z,91.82
2024-02-08T01:45:31.573Z,91.85
2024-02-08T01:48:03.626Z,92.35
2024-02-08T01:50:33.928Z,91.69
2024-02-08T01:53:00.831Z,91.90
2024-02-08T01:55:34.015Z,92.38
2024-02-08T01:58:04.917Z,92.57
2024-02-08T02:00:36.394Z,92.34
2024-02-08T02:03:04.697Z,92.38
2024-02-08T02:05:31.245Z,92.18
2024-02-08T02:07:58.756Z,92.09
2024-02-08T02:10:31.016Z,92.01
2024-02-08T02:13:04.383Z,91.97
2024-02-08T02:15:32.950Z,92.00
2024-02-08T02:18:05.074Z,91.88
2024-02-08T02:20:31.589Z,92.07
2024-02-08T02:22:59.894Z,91.74
2024-02-08T02:25:29.778Z,92.06
2024-02-08T02:27:59.745Z,92.77
2024-02-08T02:30:29.633Z,92.71
2024-02-08T02:33:01.031Z,92.75
2024-02-08T02:35:29.834Z,92.42
2024-02-08T02:37:59.966Z,92.12
2024-02-08T02:40:26.520Z,91.90
2024-02-08T02:42:54.147Z,91.96
2024-02-08T02:45:25.131Z,92.19
2024-02-08T02:47:54.691Z,92.77
2024-02-08T02:50:22.614Z,93.25
2024-02-08T02:52:50.455Z,92.93
2024-02-08T02:55:21.308Z,93.07
2024-02-08T02:57:48.433Z,93.15
2024-02-08T03:00:34.866Z,92.83
2024-02-08T03:03:09.994Z,92.30
2024-02-08T03:05:40.882Z,92.73
2024-02-08T03:08:08.077Z,93.13
2024-02-08T03:10:36.045Z,92.76
2024-02-08T03:13:02.560Z,93.11
2024-02-08T03:15:28.992Z,93.38
2024-02-08T03:17:55.516Z,93.15
2024-02-08T03:20:25.549Z,93.11
2024-02-08T03:22:52.487Z,92.84
2024-02-08T03:25:22.750Z,93.07
2024-02-08T03:27:55.310Z,93.08
2024-02-08T03:30:32.055Z,92.84
2024-02-08T03:32:59.957Z,92.49
2024-02-08T03:35:30.975Z,93.17
2024-02-08T03:38:01.818Z,93.23
2024-02-08T03:40:33.611Z,93.76
2024-02-08T03:43:01.489Z,93.15
2024-02-08T03:45:31.456Z,93.60
2024-02-08T03:48:00.210Z,93.79
2024-02-08T03:50:35.071Z,93.70
2024-02-08T03:53:05.534Z,93.62
2024-02-08T03:55:33.019Z,93.48
2024-02-08T03:58:01.646Z,93.24
2024-02-08T04:00:31.440Z,92.81
2024-02-08T04:03:04.958Z,93.04
2024-02-08T04:05:50.228Z,93.09
2024-02-08T04:08:28.679Z,93.33
2024-02-08T04:10:55.787Z,93.24
2024-02-08T04:13:41.340Z,93.33
2024-02-08T04:16:26.168Z,93.71
2024-02-08T04:19:11.419Z,93.25
2024-02-08T04:21:56.200Z,93.03
2024-02-08T04:24:41.437Z,92.83
2024-02-08T04:27:28.742Z,92.62
2024-02-08T04:30:13.546Z,92.52
2024-02-08T04:33:08.955Z,92.80
2024-02-08T04:35:53.790Z,92.68
2024-02-08T04:38:38.583Z,92.40
2024-02-08T04:41:23.337Z,92.59
2024-02-08T04:44:08.414Z,91.51
2024-02-08T04:46:53.255Z,90.77
2024-02-08T04:49:38.584Z,90.50
2024-02-08T04:52:24.196Z,90.81
2024-02-08T04:54:50.670Z,91.07
2024-02-08T04:57:17.047Z,91.02
2024-02-08T04:59:47.570Z,91.16
2024-02-08T05:02:15.226Z,91.06
2024-02-08T05:04:43.101Z,91.10
2024-02-08T05:07:09.812Z,91.17
2024-02-08T05:09:36.526Z,91.14
2024-02-08T05:12:06.845Z,91.10
2024-02-08T05:14:36.241Z,91.16
2024-02-08T05:17:03.268Z,90.87
2024-02-08T05:19:30.049Z,91.05
2024-02-08T05:22:00.998Z,90.60
2024-02-08T05:24:32.927Z,91.50
2024-02-08T05:27:03.224Z,91.39
2024-02-08T05:29:30.221Z,90.97
2024-02-08T05:31:59.340Z,91.35
2024-02-08T05:34:27.256Z,91.02
2024-02-08T05:36:59.393Z,90.83
2024-02-08T05:39:27.572Z,91.07
2024-02-08T05:41:59.605Z,90.66
2024-02-08T05:44:32.440Z,91.25
2024-02-08T05:47:12.078Z,91.35
2024-02-08T05:49:52.421Z,91.55
2024-02-08T05:52:29.804Z,91.33
2024-02-08T05:54:56.413Z,91.39
2024-02-08T05:57:25.835Z,91.22
2024-02-08T06:00:03.679Z,91.39
2024-02-08T06:02:31.578Z,91.66
2024-02-08T06:05:05.988Z,91.34
2024-02-08T06:07:35.631Z,91.74
2024-02-08T06:10:16.978Z,91.76
2024-02-08T06:12:53.749Z,91.90
2024-02-08T06:15:25.564Z,91.88
2024-02-08T06:17:58.971Z,91.70
2024-02-08T06:20:35.024Z,91.91
2024-02-08T06:23:18.078Z,91.84
2024-02-08T06:26:02.643Z,91.82
2024-02-08T06:28:30.399Z,91.73
2024-02-08T06:31:00.191Z,91.84
2024-02-08T06:33:27.189Z,91.90
2024-02-08T06:35:57.746Z,91.94
2024-02-08T06:38:42.691Z,91.66
2024-02-08T06:41:24.866Z,91.69
2024-02-08T06:43:58.771Z,91.81
2024-02-08T06:46:48.828Z,91.60
2024-02-08T06:49:37.238Z,92.09
2024-02-08T06:52:22.605Z,91.91
2024-02-08T06:55:07.523Z,92.00
2024-02-08T06:57:52.571Z,91.23
2024-02-08T07:00:37.694Z,91.40
2024-02-08T07:03:23.447Z,91.38
2024-02-08T07:06:08.168Z,91.03
2024-02-08T07:08:53.041Z,91.26
2024-02-08T07:11:37.792Z,91.10
2024-02-08T07:14:22.445Z,91.24
2024-02-08T07:17:07.266Z,91.49
2024-02-08T07:19:52.445Z,91.50
2024-02-08T07:22:37.251Z,92.01
2024-02-08T07:25:22.637Z,90.88
2024-02-08T07:28:08.949Z,90.70
2024-02-08T07:30:56.051Z,91.24
2024-02-08T07:33:41.805Z,90.83
2024-02-08T07:36:30.432Z,90.52
2024-02-08T07:39:17.157Z,90.46
2024-02-08T07:41:54.844Z,91.18
2024-02-08T07:44:24.242Z,91.07
2024-02-08T07:46:51.317Z,90.97
2024-02-08T07:49:18.406Z,90.86
2024-02-08T07:51:51.626Z,90.48
2024-02-08T07:54:22.805Z,90.68
2024-02-08T07:56:49.378Z,90.87
2024-02-08T07:59:27.685Z,90.93
2024-02-08T08:01:58.890Z,91.58
2024-02-08T08:04:52.834Z,91.64
2024-02-08T08:07:26.617Z,92.30
2024-02-08T08:10:10.135Z,92.94
2024-02-08T08:12:37.204Z,92.05
2024-02-08T08:15:04.134Z,92.21
2024-02-08T08:17:31.066Z,91.64
2024-02-08T08:20:05.162Z,92.25
2024-02-08T08:22:35.540Z,92.78
2024-02-08T08:25:22.152Z,92.69
2024-02-08T08:27:48.768Z,93.04
2024-02-08T08:30:31.489Z,92.69
2024-02-08T08:33:03.057Z,92.39
2024-02-08T08:35:46.901Z,92.58
2024-02-08T08:38:20.425Z,92.94
2024-02-08T08:40:50.951Z,93.13
2024-02-08T08:43:23.685Z,93.58
2024-02-08T08:45:51.775Z,94.06
2024-02-08T08:48:22.984Z,93.05
2024-02-08T08:50:56.273Z,93.14
2024-02-08T08:53:29.369Z,92.79
2024-02-08T08:55:56.736Z,93.92
2024-02-08T08:58:28.897Z,93.55
2024-02-08T09:01:12.733Z,94.46
2024-02-08T09:03:41.061Z,94.21
2024-02-08T09:06:13.819Z,93.55
2024-02-08T09:08:47.220Z,93.10
2024-02-08T09:11:20.394Z,93.82
2024-02-08T09:13:52.740Z,93.23
2024-02-08T09:16:23.295Z,92.98
2024-02-08T09:19:03.716Z,92.61
2024-02-08T09:21:36.451Z,93.10
2024-02-08T09:24:07.925Z,93.25
2024-02-08T09:26:53.413Z,93.08
2024-02-08T09:29:28.628Z,94.71
2024-02-08T09:31:59.600Z,95.33
2024-02-08T09:34:42.304Z,94.84
2024-02-08T09:37:10.416Z,95.00
2024-02-08T09:39:56.639Z,95.20
2024-02-08T09:42:30.716Z,95.21
2024-02-08T09:45:15.226Z,95.25
2024-02-08T09:47:56.192Z,95.47
2024-02-08T09:50:37.180Z,95.33
2024-02-08T09:53:20.470Z,95.02
2024-02-08T09:55:56.836Z,95.85
2024-02-08T09:58:43.286Z,95.07
2024-02-08T10:01:23.990Z,94.40
2024-02-08T10:04:06.094Z,94.90
2024-02-08T10:06:40.446Z,94.82
2024-02-08T10:09:30.906Z,94.96
2024-02-08T10:11:59.358Z,94.21
2024-02-08T10:14:27.113Z,94.71
2024-02-08T10:17:01.931Z,94.52
2024-02-08T10:19:48.757Z,95.32
2024-02-08T10:22:28.253Z,94.94
2024-02-08T10:24:54.997Z,95.13
2024-02-08T10:27:22.603Z,96.05
2024-02-08T10:29:52.076Z,95.90
2024-02-08T10:32:19.929Z,95.25
2024-02-08T10:34:47.530Z,96.08
2024-02-08T10:37:34.537Z,95.85
2024-02-08T10:40:01.938Z,94.62
2024-02-08T10:42:39.336Z,95.71
2024-02-08T10:45:06.693Z,95.79
2024-02-08T10:47:42.317Z,95.92
2024-02-08T10:50:21.123Z,95.97
2024-02-08T10:52:50.404Z,96.16
2024-02-08T10:55:19.835Z,95.94
2024-02-08T10:58:22.281Z,96.57
2024-02-08T11:00:49.103Z,96.48
2024-02-08T11:03:29.401Z,97.44
2024-02-08T11:06:02.824Z,97.54
2024-02-08T11:08:37.944Z,98.04
2024-02-08T11:11:10.916Z,98.12
2024-02-08T11:13:43.579Z,98.18
2024-02-08T11:16:21.632Z,99.17
2024-02-08T11:18:53.941Z,99.64
2024-02-08T11:21:44.874Z,99.91
2024-02-08T11:24:14.446Z,99.14
2024-02-08T11:26:55.852Z,99.76
2024-02-08T11:29:25.336Z,100.00
2024-02-08T11:31:51.843Z,99.73
2024-02-08T11:34:25.514Z,100.00
2024-02-08T11:39:30.872Z,100.00
2024-02-08T11:42:06.606Z,100.00
2024-02-08T11:44:40.732Z,100.00
2024-02-08T11:47:24.770Z,100.00
2024-02-08T11:50:02.333Z,100.00
2024-02-08T11:52:29.983Z,100.00
2024-02-08T11:55:02.918Z,100.00
2024-02-08T11:57:38.366Z,100.00
2024-02-08T12:00:16.487Z,100.00
2024-02-08T12:02:53.379Z,100.00
2024-02-08T12:05:22.281Z,100.00
2024-02-08T12:07:49.695Z,100.00
2024-02-08T12:10:23.211Z,100.00
2024-02-08T12:12:55.877Z,100.00
2024-02-08T12:15:22.835Z,100.00
2024-02-08T12:17:54.071Z,100.00
2024-02-08T12:20:20.735Z,100.00
2024-02-08T12:22:54.673Z,100.00
2024-02-08T12:25:21.510Z,100.00
2024-02-08T12:27:58.750Z,100.00
2024-02-08T12:30:34.712Z,100.00
2024-02-08T12:33:09.772Z,100.00
2024-02-08T12:35:41.484Z,100.00
2024-02-08T12:38:10.254Z,100.00
2024-02-08T12:40:37.039Z,99.83
2024-02-08T12:43:09.106Z,100.00
2024-02-08T12:45:36.498Z,100.00
2024-02-08T12:48:07.818Z,100.00
2024-02-08T12:50:36.348Z,100.00
2024-02-08T12:53:06.944Z,100.00
2024-02-08T12:55:33.455Z,100.00
2024-02-08T12:58:06.653Z,100.00
2024-02-08T13:00:36.757Z,100.00
2024-02-08T13:03:07.689Z,100.00
2024-02-08T13:05:39.439Z,100.00
2024-02-08T13:08:09.561Z,100.00
2024-02-08T13:10:39.676Z,100.00
2024-02-08T13:13:11.295Z,100.00
2024-02-08T13:15:38.399Z,100.00
2024-02-08T13:18:10.921Z,100.00
2024-02-08T13:20:40.822Z,100.00
2024-02-08T13:23:10.710Z,100.00
2024-02-08T13:25:37.677Z,100.00
2024-02-08T13:28:04.698Z,100.00
2024-02-08T13:30:31.681Z,100.00
2024-02-08T13:32:59.706Z,100.00
2024-02-08T13:35:27.441Z,100.00
2024-02-08T13:37:55.860Z,100.00
2024-02-08T13:40:24.565Z,100.00
2024-02-08T13:42:57.218Z,100.00
2024-02-08T13:45:27.042Z,100.00
2024-02-08T13:47:59.226Z,100.00
2024-02-08T13:50:31.501Z,100.00
2024-02-08T13:53:00.193Z,100.00
2024-02-08T13:55:45.477Z,100.00
2024-02-08T13:58:19.474Z,100.00
2024-02-08T14:00:46.061Z,100.00
2024-02-08T14:03:15.898Z,100.00
2024-02-08T14:05:51.901Z,100.00
2024-02-08T14:08:19.569Z,100.00
2024-02-08T14:10:46.483Z,100.00
2024-02-08T14:13:17.758Z,100.00
2024-02-08T14:15:49.565Z,100.00
2024-02-08T14:18:28.699Z,100.00
2024-02-08T14:21:02.382Z,100.00
2024-02-08T14:23:38.371Z,100.00
2024-02-08T14:26:09.360Z,100.00
2024-02-08T14:28:44.095Z,100.00
2024-02-08T14:31:11.430Z,100.00
2024-02-08T14:33:42.464Z,100.00
2024-02-08T14:36:11.384Z,100.00
2024-02-08T14:38:46.887Z,100.00
2024-02-08T14:41:27.793Z,100.00
2024-02-08T14:43:56.077Z,100.00
2024-02-08T14:46:27.283Z,100.00
2024-02-08T14:48:55.157Z,100.00
2024-02-08T14:51:24.788Z,100.00
2024-02-08T14:53:55.135Z,100.00
2024-02-08T14:56:22.229Z,100.00
2024-02-08T14:59:08.777Z,100.00
2024-02-08T15:01:43.116Z,100.00
2024-02-08T15:04:23.187Z,100.00
2024-02-08T15:07:06.925Z,100.00
2024-02-08T15:09:37.510Z,100.00
2024-02-08T15:12:05.751Z,100.00
2024-02-08T15:14:39.343Z,100.00
2024-02-08T15:17:11.852Z,100.00
2024-02-08T15:20:38.759Z,100.00
2024-02-08T15:23:41.695Z,100.00
2024-02-08T15:27:07.020Z,100.00
2024-02-08T15:29:44.280Z,100.00
2024-02-08T15:32:20.026Z,100.00
2024-02-08T15:35:00.938Z,100.00
2024-02-08T15:37:28.097Z,100.00
2024-02-08T15:39:54.953Z,100.00
2024-02-08T15:42:33.356Z,100.00
2024-02-08T15:45:00.611Z,100.00
2024-02-08T15:47:30.152Z,100.00
2024-02-08T15:49:57.640Z,100.00
2024-02-08T15:52:35.775Z,100.00
2024-02-08T15:55:16.381Z,100.00
2024-02-08T15:57:52.695Z,100.00
2024-02-08T16:00:34.810Z,100.00
2024-02-08T16:03:04.022Z,100.00
2024-02-08T16:05:36.162Z,100.00
2024-02-08T16:08:07.357Z,100.00
2024-02-08T16:10:34.030Z,100.00
2024-02-08T16:13:07.503Z,100.00
2024-02-08T16:15:53.956Z,100.00
2024-02-08T16:18:27.483Z,100.00
2024-02-08T16:20:59.704Z,100.00
2024-02-08T16:23:45.429Z,100.00
2024-02-08T16:26:14.657Z,100.00
2024-02-08T16:28:51.127Z,100.00
2024-02-08T16:31:18.077Z,100.00
2024-02-08T16:33:54.434Z,100.00
2024-02-08T16:36:35.239Z,100.00
2024-02-08T16:39:09.364Z,100.00
2024-02-08T16:41:50.010Z,100.00
2024-02-08T16:44:23.694Z,100.00
2024-02-08T16:46:56.785Z,100.00
2024-02-08T16:49:32.035Z,100.00
2024-02-08T16:52:05.400Z,100.00
2024-02-08T16:54:35.274Z,100.00
2024-02-08T16:57:07.754Z,100.00
2024-02-08T16:59:49.484Z,100.00
2024-02-08T17:02:40.368Z,100.00
2024-02-08T17:05:13.527Z,100.00
2024-02-08T17:07:46.345Z,100.00
2024-02-08T17:10:37.447Z,100.00
2024-02-08T17:13:17.397Z,100.00
2024-02-08T17:16:00.785Z,100.00
2024-02-08T17:18:35.179Z,100.00
2024-02-08T17:21:28.296Z,100.00
2024-02-08T17:24:02.925Z,100.00
2024-02-08T17:26:37.701Z,100.00
2024-02-08T17:29:33.383Z,100.00
2024-02-08T17:31:59.763Z,100.00
2024-02-08T17:34:28.384Z,100.00
2024-02-08T17:36:55.938Z,100.00
2024-02-08T17:39:26.307Z,100.00
2024-02-08T17:41:53.455Z,100.00
2024-02-08T17:44:31.024Z,100.00
2024-02-08T17:47:01.206Z,100.00
2024-02-08T17:49:27.981Z,100.00
2024-02-08T17:51:57.761Z,100.00
2024-02-08T17:54:32.882Z,100.00
2024-02-08T17:57:02.996Z,100.00
2024-02-08T17:59:30.517Z,100.00
2024-02-08T18:02:15.749Z,100.00
2024-02-08T18:07:14.136Z,100.00
2024-02-08T18:09:45.246Z,100.00
2024-02-08T18:12:34.955Z,100.00
2024-02-08T18:15:14.073Z,100.00
2024-02-08T18:17:46.437Z,100.00
2024-02-08T18:20:16.845Z,100.00
2024-02-08T18:22:49.752Z,100.00
2024-02-08T18:25:29.882Z,100.00
2024-02-08T18:28:00.964Z,100.00
2024-02-08T18:30:30.023Z,100.00
2024-02-08T18:33:05.101Z,100.00
2024-02-08T18:35:36.368Z,100.00
2024-02-08T18:38:09.565Z,100.00
2024-02-08T18:40:37.760Z,100.00
2024-02-08T18:43:05.279Z,100.00
2024-02-08T18:45:35.760Z,100.00
2024-02-08T18:48:02.389Z,100.00
2024-02-08T18:50:31.961Z,100.00
2024-02-08T18:53:07.591Z,100.00
2024-02-08T18:55:40.403Z,100.00
2024-02-08T18:58:10.251Z,100.00
2024-02-08T19:00:38.361Z,100.00
2024-02-08T19:03:08.844Z,100.00
2024-02-08T19:05:43.673Z,100.00
2024-02-08T19:08:19.627Z,100.00
2024-02-08T19:10:53.834Z,100.00
2024-02-08T19:13:28.686Z,100.00
2024-02-08T19:16:09.252Z,100.00
2024-02-08T19:18:45.368Z,100.00
2024-02-08T19:21:16.344Z,100.00
2024-02-08T19:23:45.753Z,100.00
2024-02-08T19:26:22.865Z,100.00
2024-02-08T19:28:50.118Z,100.00
2024-02-08T19:31:16.622Z,100.00
2024-02-08T19:33:46.456Z,100.00
2024-02-08T19:36:23.270Z,100.00
2024-02-08T19:38:56.649Z,100.00
2024-02-08T19:41:24.479Z,100.00
2024-02-08T19:43:51.192Z,100.00
2024-02-08T19:46:20.750Z,100.00
2024-02-08T19:48:53.529Z,100.00
2024-02-08T19:51:26.084Z,100.00
2024-02-08T19:53:56.091Z,100.00
2024-02-08T19:56:23.861Z,100.00
2024-02-08T19:58:53.642Z,100.00
2024-02-08T20:01:24.265Z,100.00
2024-02-08T20:03:53.481Z,100.00
2024-02-08T20:06:22.499Z,100.00
2024-02-08T20:08:55.302Z,100.00
2024-02-08T20:11:24.738Z,100.00
2024-02-08T20:14:00.192Z,100.00
2024-02-08T20:16:36.708Z,100.00
2024-02-08T20:19:06.695Z,100.00
2024-02-08T20:21:33.196Z,100.00
2024-02-08T20:24:01.400Z,100.00
2024-02-08T20:26:30.077Z,100.00
2024-02-08T20:28:56.521Z,100.00
2024-02-08T20:31:25.601Z,100.00
2024-02-08T20:33:55.533Z,100.00
2024-02-08T20:36:22.743Z,100.00
2024-02-08T20:38:54.504Z,100.00
2024-02-08T20:41:25.127Z,100.00
2024-02-08T20:44:08.441Z,100.00
2024-02-08T20:46:36.338Z,100.00
2024-02-08T20:49:04.700Z,100.00
2024-02-08T20:51:34.184Z,100.00
2024-02-08T20:54:06.183Z,100.00
2024-02-08T20:56:37.687Z,100.00
2024-02-08T20:59:11.771Z,100.00
2024-02-08T21:01:38.274Z,100.00
2024-02-08T21:04:08.692Z,100.00
2024-02-08T21:06:35.573Z,100.00
2024-02-08T21:09:08.109Z,100.00
2024-02-08T21:11:37.690Z,100.00
2024-02-08T21:14:05.078Z,100.00
2024-02-08T21:16:31.762Z,100.00
2024-02-08T21:18:58.352Z,100.00
2024-02-08T21:21:25.022Z,100.00
2024-02-08T21:23:55.317Z,100.00
2024-02-08T21:26:22.971Z,100.00
2024-02-08T21:28:52.261Z,100.00
2024-02-08T21:31:20.048Z,100.00
2024-02-08T21:33:48.925Z,100.00
2024-02-08T21:36:16.723Z,100.00
2024-02-08T21:38:50.197Z,100.00
2024-02-08T21:41:17.183Z,100.00
2024-02-08T21:43:44.539Z,100.00
2024-02-08T21:46:14.324Z,100.00
2024-02-08T21:48:45.126Z,100.00
2024-02-08T21:51:13.318Z,100.00
2024-02-08T21:53:39.932Z,100.00
2024-02-08T21:56:19.683Z,100.00
2024-02-08T21:58:47.506Z,100.00
2024-02-08T22:03:59.409Z,100.00
2024-02-08T22:06:26.363Z,100.00
2024-02-08T22:08:53.106Z,100.00
2024-02-08T22:11:19.698Z,100.00
2024-02-08T22:13:47.206Z,100.00
2024-02-08T22:16:17.030Z,100.00
2024-02-08T22:18:47.468Z,100.00
2024-02-08T22:21:18.175Z,100.00
2024-02-08T22:23:45.537Z,100.00
2024-02-08T22:26:13.925Z,100.00
2024-02-08T22:28:44.003Z,100.00
2024-02-08T22:31:12.425Z,100.00
2024-02-08T22:33:39.384Z,100.00
2024-02-08T22:36:07.919Z,100.00
2024-02-08T22:38:34.565Z,100.00
2024-02-08T22:41:01.668Z,100.00
2024-02-08T22:43:28.539Z,100.00
2024-02-08T22:45:56.102Z,100.00
2024-02-08T22:48:23.306Z,100.00
2024-02-08T22:50:52.455Z,100.00
2024-02-08T22:53:21.085Z,100.00
2024-02-08T22:55:52.093Z,100.00
2024-02-08T22:58:20.066Z,100.00
2024-02-08T23:00:50.867Z,100.00
2024-02-08T23:03:18.385Z,100.00
2024-02-08T23:05:46.959Z,100.00
2024-02-08T23:08:17.060Z,100.00
2024-02-08T23:10:43.845Z,100.00
2024-02-08T23:13:12.070Z,100.00
2024-02-08T23:15:45.759Z,100.00
2024-02-08T23:18:15.853Z,100.00
2024-02-08T23:20:44.724Z,100.00
2024-02-08T23:23:12.212Z,100.00
2024-02-08T23:25:40.911Z,100.00
2024-02-08T23:28:08.156Z,100.00
2024-02-08T23:30:34.861Z,100.00
2024-02-08T23:33:04.729Z,100.00
2024-02-08T23:35:31.824Z,100.00
2024-02-08T23:38:01.482Z,100.00
2024-02-08T23:40:29.497Z,100.00
2024-02-08T23:42:57.818Z,100.00
2024-02-08T23:45:29.265Z,100.00
2024-02-08T23:47:56.236Z,100.00
2024-02-08T23:50:25.236Z,100.00
2024-02-08T23:52:53.374Z,100.00
2024-02-08T23:55:24.451Z,100.00
2024-02-08T23:57:51.012Z,100.00
